createdAt,value
2022-07-27T00:00:55.639Z,98989.13
2022-07-27T00:03:22.850Z,98988.48
2022-07-27T00:05:49.519Z,98985.94
2022-07-27T00:08:16.147Z,98982.24
2022-07-27T00:10:42.572Z,98983.36
2022-07-27T00:13:10.455Z,98982.02
2022-07-27T00:15:37.374Z,98988.95
2022-07-27T00:18:04.066Z,98993.39
2022-07-27T00:20:31.508Z,98991.91
2022-07-27T00:22:59.050Z,98988.23
2022-07-27T00:25:27.120Z,98985.41
2022-07-27T00:27:56.598Z,98980.74
2022-07-27T00:30:23.856Z,98982.85
2022-07-27T00:32:51.544Z,98981.84
2022-07-27T00:35:18.355Z,98983.27
2022-07-27T00:37:44.806Z,98988.80
2022-07-27T00:40:12.296Z,98987.60
2022-07-27T00:42:38.804Z,98994.52
2022-07-27T00:45:06.121Z,98998.91
2022-07-27T00:47:35.476Z,98994.88
2022-07-27T00:50:03.622Z,98991.08
2022-07-27T00:52:31.206Z,98994.19
2022-07-27T00:54:58.715Z,98992.38
2022-07-27T00:57:27.450Z,98996.29
2022-07-27T00:59:54.154Z,98999.54
2022-07-27T01:02:22.991Z,98999.33
2022-07-27T01:04:53.790Z,98994.88
2022-07-27T01:07:25.389Z,98999.29
2022-07-27T01:09:58.192Z,98997.59
2022-07-27T01:12:30.932Z,98993.36
2022-07-27T01:14:58.952Z,98995.75
2022-07-27T01:17:30.061Z,98990.56
2022-07-27T01:20:00.394Z,98988.16
2022-07-27T01:22:27.031Z,98985.89
2022-07-27T01:24:53.777Z,98984.88
2022-07-27T01:27:20.678Z,98989.81
2022-07-27T01:29:47.908Z,98989.19
2022-07-27T01:32:14.532Z,98990.59
2022-07-27T01:34:41.014Z,98997.27
2022-07-27T01:37:07.553Z,99006.52
2022-07-27T01:39:34.032Z,99004.38
2022-07-27T01:42:00.828Z,99002.70
2022-07-27T01:44:27.342Z,99009.11
2022-07-27T01:46:53.933Z,99006.80
2022-07-27T01:49:20.769Z,99009.07
2022-07-27T01:51:47.669Z,99008.37
2022-07-27T01:54:14.631Z,99014.72
2022-07-27T01:56:41.272Z,99017.54
2022-07-27T01:59:16.307Z,99016.95
2022-07-27T02:01:44.405Z,99009.70
2022-07-27T02:04:11.729Z,99008.23
2022-07-27T02:06:38.798Z,99012.61
2022-07-27T02:09:05.340Z,99012.95
2022-07-27T02:11:50.628Z,99008.61
2022-07-27T02:14:17.078Z,99008.13
2022-07-27T02:16:43.656Z,99013.10
2022-07-27T02:19:11.230Z,99016.27
2022-07-27T02:21:37.904Z,99009.29
2022-07-27T02:24:04.983Z,99006.38
2022-07-27T02:26:31.393Z,99009.96
2022-07-27T02:28:58.210Z,99009.13
2022-07-27T02:31:24.689Z,99005.10
2022-07-27T02:33:51.392Z,99009.80
2022-07-27T02:36:17.906Z,99009.91
2022-07-27T02:38:44.692Z,99008.74
2022-07-27T02:41:12.057Z,99012.58
2022-07-27T02:43:38.495Z,99012.84
2022-07-27T02:46:05.554Z,99014.12
2022-07-27T02:48:32.511Z,99013.83
2022-07-27T02:51:00.818Z,99021.33
2022-07-27T02:53:28.703Z,99018.69
2022-07-27T02:55:55.814Z,99023.10
2022-07-27T02:58:23.126Z,99024.52
2022-07-27T03:00:52.583Z,99026.20
2022-07-27T03:03:22.815Z,99027.31
2022-07-27T03:06:00.874Z,99025.98
2022-07-27T03:08:27.810Z,99032.98
2022-07-27T03:10:54.820Z,99038.15
2022-07-27T03:13:21.675Z,99034.95
2022-07-27T03:15:48.154Z,99034.70
2022-07-27T03:18:14.619Z,99034.01
2022-07-27T03:20:41.042Z,99025.38
2022-07-27T03:23:08.450Z,99019.45
2022-07-27T03:25:34.956Z,99024.86
2022-07-27T03:28:04.175Z,99023.80
2022-07-27T03:30:32.403Z,99017.09
2022-07-27T03:32:58.979Z,99016.30
2022-07-27T03:35:25.512Z,99015.48
2022-07-27T03:37:52.006Z,99011.75
2022-07-27T03:40:18.814Z,99012.80
2022-07-27T03:42:45.497Z,99005.43
2022-07-27T03:45:12.008Z,99009.55
2022-07-27T03:47:38.458Z,99009.60
2022-07-27T03:50:07.543Z,99013.72
2022-07-27T03:52:34.031Z,99010.34
2022-07-27T03:55:00.807Z,99006.29
2022-07-27T03:57:27.273Z,99006.24
2022-07-27T03:59:53.762Z,99006.94
2022-07-27T04:02:20.548Z,99005.48
2022-07-27T04:04:47.374Z,99005.23
2022-07-27T04:07:13.798Z,99000.45
2022-07-27T04:09:40.737Z,98996.59
2022-07-27T04:12:09.493Z,98996.16
2022-07-27T04:14:36.116Z,98994.39
2022-07-27T04:17:03.068Z,98992.39
2022-07-27T04:19:30.131Z,98990.55
2022-07-27T04:21:56.873Z,98989.00
2022-07-27T04:24:23.385Z,98985.23
2022-07-27T04:26:49.856Z,98984.17
2022-07-27T04:29:20.495Z,98985.59
2022-07-27T04:31:48.090Z,98987.85
2022-07-27T04:34:15.037Z,98985.54
2022-07-27T04:36:41.555Z,98979.13
2022-07-27T04:39:08.537Z,98975.65
2022-07-27T04:41:35.223Z,98982.66
2022-07-27T04:44:01.859Z,98986.55
2022-07-27T04:46:29.050Z,98990.41
2022-07-27T04:48:55.797Z,98991.34
2022-07-27T04:51:22.225Z,98991.23
2022-07-27T04:53:52.719Z,98995.69
2022-07-27T04:56:26.769Z,98996.16
2022-07-27T04:58:54.451Z,99003.83
2022-07-27T05:01:22.378Z,99005.38
2022-07-27T05:03:48.864Z,99007.29
2022-07-27T05:06:15.657Z,99012.14
2022-07-27T05:08:42.009Z,99012.59
2022-07-27T05:11:11.596Z,99015.34
2022-07-27T05:13:39.978Z,99020.52
2022-07-27T05:16:08.822Z,99017.67
2022-07-27T05:18:35.879Z,99019.63
2022-07-27T05:21:02.688Z,99021.84
2022-07-27T05:23:29.119Z,99025.70
2022-07-27T05:25:55.564Z,99027.10
2022-07-27T05:28:25.094Z,99031.02
2022-07-27T05:30:52.917Z,99034.95
2022-07-27T05:33:19.463Z,99036.87
2022-07-27T05:35:45.879Z,99041.06
2022-07-27T05:38:13.720Z,99039.68
2022-07-27T05:40:40.750Z,99043.17
2022-07-27T05:43:07.213Z,99049.89
2022-07-27T05:45:34.287Z,99053.34
2022-07-27T05:48:00.742Z,99053.95
2022-07-27T05:50:27.302Z,99054.85
2022-07-27T05:52:53.758Z,99060.85
2022-07-27T05:55:21.414Z,99062.52
2022-07-27T05:57:47.932Z,99061.91
2022-07-27T06:00:14.555Z,99059.54
2022-07-27T06:02:41.752Z,99066.64
2022-07-27T06:05:14.836Z,99069.18
2022-07-27T06:08:01.667Z,99074.13
2022-07-27T06:10:31.750Z,99072.91
2022-07-27T06:12:58.358Z,99076.50
2022-07-27T06:15:25.409Z,99075.17
2022-07-27T06:17:54.878Z,99074.49
2022-07-27T06:20:23.025Z,99077.41
2022-07-27T06:22:52.510Z,99076.85
2022-07-27T06:25:21.076Z,99073.66
2022-07-27T06:27:48.135Z,99073.75
2022-07-27T06:30:17.003Z,99073.77
2022-07-27T06:32:44.467Z,99079.90
2022-07-27T06:35:12.642Z,99085.60
2022-07-27T06:37:44.277Z,99085.16
2022-07-27T06:40:12.726Z,99088.75
2022-07-27T06:42:40.808Z,99092.11
2022-07-27T06:45:09.691Z,99089.58
2022-07-27T06:47:48.751Z,99092.52
2022-07-27T06:50:18.640Z,99093.09
2022-07-27T06:52:46.761Z,99083.02
2022-07-27T06:55:13.344Z,99083.21
2022-07-27T06:57:39.775Z,99076.71
2022-07-27T07:00:06.996Z,99079.18
2022-07-27T07:02:33.474Z,99080.34
2022-07-27T07:04:59.885Z,99083.33
2022-07-27T07:07:26.555Z,99084.23
2022-07-27T07:09:53.077Z,99085.59
2022-07-27T07:12:19.742Z,99083.27
2022-07-27T07:14:46.261Z,99084.79
2022-07-27T07:17:12.963Z,99080.77
2022-07-27T07:19:39.391Z,99089.84
2022-07-27T07:22:06.011Z,99087.84
2022-07-27T07:24:33.087Z,99075.38
2022-07-27T07:26:59.605Z,99077.90
2022-07-27T07:29:26.039Z,99073.98
2022-07-27T07:31:52.523Z,99077.75
2022-07-27T07:34:18.942Z,99075.29
2022-07-27T07:36:47.324Z,99080.43
2022-07-27T07:39:14.268Z,99081.86
2022-07-27T07:41:41.006Z,99084.92
2022-07-27T07:44:08.537Z,99080.38
2022-07-27T07:46:36.342Z,99078.75
2022-07-27T07:49:04.478Z,99081.54
2022-07-27T07:51:31.541Z,99077.80
2022-07-27T07:53:58.111Z,99085.61
2022-07-27T07:56:25.025Z,99087.63
2022-07-27T07:58:51.486Z,99087.51
2022-07-27T08:01:27.772Z,99088.81
2022-07-27T08:03:57.832Z,99089.95
2022-07-27T08:06:24.418Z,99090.95
2022-07-27T08:08:51.039Z,99092.66
2022-07-27T08:11:17.815Z,99097.26
2022-07-27T08:13:44.251Z,99098.15
2022-07-27T08:16:10.768Z,99102.20
2022-07-27T08:18:37.298Z,99112.14
2022-07-27T08:21:03.790Z,99101.67
2022-07-27T08:23:33.114Z,99104.58
2022-07-27T08:26:04.118Z,99110.75
2022-07-27T08:28:36.958Z,99114.45
2022-07-27T08:31:08.991Z,99110.75
2022-07-27T08:33:42.950Z,99112.61
2022-07-27T08:36:09.490Z,99129.25
2022-07-27T08:38:36.818Z,99129.92
2022-07-27T08:41:03.763Z,99130.65
2022-07-27T08:43:31.393Z,99125.86
2022-07-27T08:46:00.664Z,99122.67
2022-07-27T08:48:32.704Z,99127.94
2022-07-27T08:50:59.267Z,99131.60
2022-07-27T08:53:53.652Z,99126.55
2022-07-27T08:56:21.495Z,99117.95
2022-07-27T08:58:48.545Z,99127.89
2022-07-27T09:01:16.439Z,99129.80
2022-07-27T09:03:42.956Z,99139.14
2022-07-27T09:06:10.104Z,99139.52
2022-07-27T09:08:38.047Z,99136.34
2022-07-27T09:11:15.235Z,99139.94
2022-07-27T09:13:42.071Z,99141.95
2022-07-27T09:16:19.666Z,99144.73
2022-07-27T09:18:47.938Z,99140.52
2022-07-27T09:21:22.889Z,99137.91
2022-07-27T09:24:44.331Z,99133.88
2022-07-27T09:27:03.491Z,99136.69
2022-07-27T09:29:35.101Z,99133.05
2022-07-27T09:32:14.650Z,99131.17
2022-07-27T09:34:41.133Z,99133.23
2022-07-27T09:37:07.953Z,99137.04
2022-07-27T09:39:34.387Z,99135.66
2022-07-27T09:42:02.382Z,99132.25
2022-07-27T09:44:43.420Z,99127.95
2022-07-27T09:47:27.761Z,99127.64
2022-07-27T09:50:14.509Z,99124.84
2022-07-27T09:52:41.346Z,99121.40
2022-07-27T09:55:08.583Z,99123.30
2022-07-27T09:57:55.733Z,99125.52
2022-07-27T10:00:24.391Z,99126.23
2022-07-27T10:02:53.420Z,99125.03
2022-07-27T10:05:22.095Z,99124.67
2022-07-27T10:07:49.971Z,99123.17
2022-07-27T10:10:16.794Z,99126.93
2022-07-27T10:12:46.927Z,99130.02
2022-07-27T10:15:14.838Z,99130.09
2022-07-27T10:17:44.223Z,99127.23
2022-07-27T10:20:13.156Z,99133.48
2022-07-27T10:22:49.045Z,99129.05
2022-07-27T10:25:15.661Z,99123.46
2022-07-27T10:27:47.248Z,99118.53
2022-07-27T10:30:24.270Z,99117.76
2022-07-27T10:32:54.836Z,99120.89
2022-07-27T10:35:32.301Z,99124.77
2022-07-27T10:38:44.064Z,99120.64
2022-07-27T10:41:22.024Z,99125.46
2022-07-27T10:43:50.908Z,99125.25
2022-07-27T10:46:22.142Z,99123.13
2022-07-27T10:48:49.424Z,99130.61
2022-07-27T10:51:33.206Z,99131.71
2022-07-27T10:54:18.194Z,99132.40
2022-07-27T10:56:47.021Z,99132.00
2022-07-27T10:59:15.085Z,99134.98
2022-07-27T11:01:58.023Z,99132.48
2022-07-27T11:04:24.810Z,99136.27
2022-07-27T11:07:23.574Z,99129.22
2022-07-27T11:12:30.829Z,99130.30
2022-07-27T11:14:58.717Z,99126.58
2022-07-27T11:17:54.162Z,99128.30
2022-07-27T11:20:23.138Z,99131.88
2022-07-27T11:25:36.429Z,99143.66
2022-07-27T11:28:06.914Z,99144.91
2022-07-27T11:30:33.933Z,99141.69
2022-07-27T11:33:04.279Z,99146.68
2022-07-27T11:35:30.943Z,99149.27
2022-07-27T11:38:03.299Z,99149.01
2022-07-27T11:40:56.530Z,99146.36
2022-07-27T11:43:45.462Z,99139.70
2022-07-27T11:46:24.681Z,99142.36
2022-07-27T11:49:08.726Z,99146.98
2022-07-27T11:51:38.752Z,99147.15
2022-07-27T11:54:11.280Z,99150.02
2022-07-27T11:56:42.512Z,99153.95
2022-07-27T11:59:28.724Z,99151.05
2022-07-27T12:02:07.146Z,99151.77
2022-07-27T12:04:36.249Z,99148.40
2022-07-27T12:07:15.401Z,99145.51
2022-07-27T12:09:51.290Z,99142.94
2022-07-27T12:12:20.142Z,99138.68
2022-07-27T12:14:53.738Z,99143.06
2022-07-27T12:17:37.688Z,99148.23
2022-07-27T12:20:07.141Z,99143.26
2022-07-27T12:22:35.176Z,99137.48
2022-07-27T12:25:21.514Z,99137.27
2022-07-27T12:28:03.876Z,99132.46
2022-07-27T12:30:57.109Z,99127.38
2022-07-27T12:33:35.127Z,99128.98
2022-07-27T12:36:04.458Z,99128.25
2022-07-27T12:38:39.891Z,99130.15
2022-07-27T12:41:07.387Z,99136.58
2022-07-27T12:43:33.874Z,99141.52
2022-07-27T12:46:13.036Z,99138.41
2022-07-27T12:48:41.929Z,99143.79
2022-07-27T12:51:10.472Z,99145.77
2022-07-27T12:53:38.243Z,99146.38
2022-07-27T12:56:09.722Z,99142.12
2022-07-27T12:58:37.058Z,99144.52
2022-07-27T13:01:04.228Z,99147.82
2022-07-27T13:03:30.697Z,99146.27
2022-07-27T13:05:57.193Z,99144.70
2022-07-27T13:08:24.037Z,99147.19
2022-07-27T13:10:53.516Z,99140.59
2022-07-27T13:13:23.940Z,99132.91
2022-07-27T13:15:50.898Z,99138.10
2022-07-27T13:18:22.836Z,99131.04
2022-07-27T13:20:50.993Z,99129.81
2022-07-27T13:23:17.840Z,99129.45
2022-07-27T13:25:44.308Z,99137.36
2022-07-27T13:28:11.689Z,99138.41
2022-07-27T13:30:38.166Z,99144.92
2022-07-27T13:33:05.012Z,99145.75
2022-07-27T13:35:31.616Z,99144.04
2022-07-27T13:37:58.319Z,99143.92
2022-07-27T13:40:24.826Z,99145.10
2022-07-27T13:42:51.220Z,99142.11
2022-07-27T13:45:17.739Z,99142.61
2022-07-27T13:47:44.309Z,99150.76
2022-07-27T13:50:20.081Z,99152.25
2022-07-27T13:52:47.695Z,99152.49
2022-07-27T13:55:15.884Z,99157.00
2022-07-27T13:57:44.355Z,99162.54
2022-07-27T14:00:12.146Z,99170.50
2022-07-27T14:02:39.247Z,99170.26
2022-07-27T14:05:08.061Z,99172.77
2022-07-27T14:07:34.671Z,99165.45
2022-07-27T14:10:20.101Z,99169.44
2022-07-27T14:12:46.543Z,99168.42
2022-07-27T14:15:13.083Z,99167.02
2022-07-27T14:17:39.484Z,99166.68
2022-07-27T14:20:06.690Z,99160.35
2022-07-27T14:22:33.169Z,99164.01
2022-07-27T14:24:59.657Z,99165.33
2022-07-27T14:27:26.093Z,99166.60
2022-07-27T14:30:01.479Z,99164.69
2022-07-27T14:32:28.034Z,99165.95
2022-07-27T14:34:54.457Z,99166.52
2022-07-27T14:37:20.888Z,99167.13
2022-07-27T14:39:47.337Z,99159.02
2022-07-27T14:42:14.294Z,99160.02
2022-07-27T14:44:41.297Z,99165.22
2022-07-27T14:47:07.909Z,99160.73
2022-07-27T14:49:34.435Z,99166.20
2022-07-27T14:52:00.915Z,99171.08
2022-07-27T14:54:27.323Z,99173.41
2022-07-27T14:56:54.245Z,99172.45
2022-07-27T14:59:21.088Z,99175.69
2022-07-27T15:01:47.607Z,99174.81
2022-07-27T15:04:14.076Z,99178.64
2022-07-27T15:06:40.609Z,99182.48
2022-07-27T15:09:07.103Z,99183.70
2022-07-27T15:11:33.891Z,99179.14
2022-07-27T15:14:00.342Z,99179.66
2022-07-27T15:16:30.622Z,99171.62
2022-07-27T15:18:57.260Z,99172.09
2022-07-27T15:21:24.869Z,99165.02
2022-07-27T15:23:51.497Z,99163.98
2022-07-27T15:26:17.953Z,99161.39
2022-07-27T15:28:44.430Z,99156.86
2022-07-27T15:31:11.092Z,99152.60
2022-07-27T15:33:37.581Z,99151.48
2022-07-27T15:36:04.473Z,99150.73
2022-07-27T15:38:31.035Z,99147.92
2022-07-27T15:40:57.548Z,99144.39
2022-07-27T15:43:24.028Z,99137.48
2022-07-27T15:45:51.542Z,99133.59
2022-07-27T15:48:19.987Z,99131.15
2022-07-27T15:50:49.708Z,99128.42
2022-07-27T15:53:18.344Z,99132.43
2022-07-27T15:55:45.370Z,99134.14
2022-07-27T15:58:17.193Z,99138.30
2022-07-27T16:00:52.768Z,99139.53
2022-07-27T16:03:24.641Z,99137.95
2022-07-27T16:05:52.858Z,99135.34
2022-07-27T16:08:20.086Z,99136.16
2022-07-27T16:10:47.794Z,99137.45
2022-07-27T16:13:16.826Z,99135.23
2022-07-27T16:16:02.797Z,99132.92
2022-07-27T16:18:34.041Z,99128.75
2022-07-27T16:21:01.421Z,99128.74
2022-07-27T16:23:28.174Z,99130.63
2022-07-27T16:26:06.320Z,99130.48
2022-07-27T16:28:39.571Z,99126.32
2022-07-27T16:31:09.799Z,99116.64
2022-07-27T16:33:37.509Z,99111.48
2022-07-27T16:36:05.651Z,99110.89
2022-07-27T16:38:32.739Z,99109.45
2022-07-27T16:40:59.557Z,99108.83
2022-07-27T16:43:37.507Z,99105.76
2022-07-27T16:46:09.398Z,99099.36
2022-07-27T16:48:42.814Z,99103.27
2022-07-27T16:51:16.271Z,99104.31
2022-07-27T16:53:45.741Z,99104.39
2022-07-27T16:56:12.365Z,99106.08
2022-07-27T16:58:39.121Z,99105.45
2022-07-27T17:01:07.225Z,99102.71
2022-07-27T17:03:34.200Z,99101.33
2022-07-27T17:06:05.695Z,99100.41
2022-07-27T17:08:35.633Z,99103.01
2022-07-27T17:11:02.371Z,99104.27
2022-07-27T17:13:33.645Z,99103.77
2022-07-27T17:16:07.049Z,99109.73
2022-07-27T17:18:39.927Z,99104.34
2022-07-27T17:21:11.804Z,99106.20
2022-07-27T17:23:40.007Z,99106.13
2022-07-27T17:26:07.404Z,99108.13
2022-07-27T17:28:36.210Z,99110.61
2022-07-27T17:31:04.363Z,99115.70
2022-07-27T17:33:31.907Z,99113.83
2022-07-27T17:35:59.418Z,99115.88
2022-07-27T17:38:31.291Z,99112.02
2022-07-27T17:41:00.957Z,99115.47
2022-07-27T17:43:27.558Z,99113.34
2022-07-27T17:45:56.292Z,99116.05
2022-07-27T17:48:22.820Z,99118.67
2022-07-27T17:50:50.789Z,99116.35
2022-07-27T17:53:18.177Z,99120.00
2022-07-27T17:55:44.677Z,99120.45
2022-07-27T17:58:11.107Z,99120.92
2022-07-27T18:00:37.677Z,99121.55
2022-07-27T18:03:04.972Z,99116.89
2022-07-27T18:05:32.306Z,99116.80
2022-07-27T18:07:58.844Z,99119.38
2022-07-27T18:10:25.392Z,99122.84
2022-07-27T18:12:51.769Z,99123.58
2022-07-27T18:15:37.126Z,99125.15
2022-07-27T18:18:04.443Z,99131.65
2022-07-27T18:20:31.207Z,99132.86
2022-07-27T18:22:58.217Z,99132.88
2022-07-27T18:25:25.478Z,99136.96
2022-07-27T18:27:51.991Z,99141.17
2022-07-27T18:30:18.499Z,99145.12
2022-07-27T18:32:45.078Z,99148.67
2022-07-27T18:35:12.614Z,99147.84
2022-07-27T18:37:40.806Z,99150.54
2022-07-27T18:40:08.698Z,99150.53
2022-07-27T18:42:36.760Z,99152.52
2022-07-27T18:45:05.451Z,99155.14
2022-07-27T18:47:32.259Z,99157.38
2022-07-27T18:49:58.858Z,99157.48
2022-07-27T18:52:25.500Z,99158.89
2022-07-27T18:54:53.587Z,99162.39
2022-07-27T18:57:20.094Z,99166.06
2022-07-27T18:59:47.457Z,99166.92
2022-07-27T19:02:15.598Z,99175.99
2022-07-27T19:04:42.377Z,99179.15
2022-07-27T19:07:09.968Z,99180.10
2022-07-27T19:09:36.636Z,99183.53
2022-07-27T19:12:09.371Z,99183.95
2022-07-27T19:14:36.428Z,99183.95
2022-07-27T19:17:02.935Z,99193.11
2022-07-27T19:19:29.872Z,99196.03
2022-07-27T19:21:56.988Z,99201.23
2022-07-27T19:24:24.901Z,99205.31
2022-07-27T19:26:51.378Z,99207.96
2022-07-27T19:29:19.259Z,99204.56
2022-07-27T19:31:46.285Z,99208.92
2022-07-27T19:34:12.792Z,99209.35
2022-07-27T19:36:39.620Z,99214.89
2022-07-27T19:39:08.126Z,99222.38
2022-07-27T19:41:35.659Z,99223.23
2022-07-27T19:44:03.283Z,99226.05
2022-07-27T19:46:30.014Z,99226.48
2022-07-27T19:48:56.957Z,99224.56
2022-07-27T19:51:24.409Z,99227.69
2022-07-27T19:53:51.089Z,99229.55
2022-07-27T19:56:17.638Z,99227.08
2022-07-27T19:58:45.899Z,99228.85
2022-07-27T20:01:13.546Z,99231.98
2022-07-27T20:03:48.818Z,99235.76
2022-07-27T20:06:25.468Z,99239.45
2022-07-27T20:08:58.941Z,99239.91
2022-07-27T20:11:29.460Z,99242.11
2022-07-27T20:13:57.013Z,99244.36
2022-07-27T20:16:23.832Z,99247.46
2022-07-27T20:18:50.358Z,99249.12
2022-07-27T20:21:22.732Z,99252.31
2022-07-27T20:23:51.906Z,99253.33
2022-07-27T20:26:19.173Z,99253.55
2022-07-27T20:28:46.544Z,99252.98
2022-07-27T20:31:13.227Z,99260.39
2022-07-27T20:33:40.275Z,99259.17
2022-07-27T20:36:06.949Z,99258.30
2022-07-27T20:38:33.862Z,99264.14
2022-07-27T20:41:00.266Z,99268.20
2022-07-27T20:43:27.301Z,99267.33
2022-07-27T20:45:54.289Z,99270.47
2022-07-27T20:48:20.891Z,99270.02
2022-07-27T20:50:47.560Z,99271.58
2022-07-27T20:53:14.125Z,99269.77
2022-07-27T20:55:42.443Z,99273.38
2022-07-27T20:58:09.088Z,99277.79
2022-07-27T21:00:36.780Z,99280.14
2022-07-27T21:03:04.790Z,99279.35
2022-07-27T21:05:31.186Z,99282.38
2022-07-27T21:07:57.745Z,99285.27
2022-07-27T21:10:24.680Z,99288.99
2022-07-27T21:12:52.516Z,99291.75
2022-07-27T21:15:19.419Z,99292.46
2022-07-27T21:17:45.882Z,99298.02
2022-07-27T21:20:14.350Z,99300.33
2022-07-27T21:22:42.532Z,99298.52
2022-07-27T21:25:10.141Z,99304.05
2022-07-27T21:27:36.767Z,99303.92
2022-07-27T21:30:05.770Z,99303.41
2022-07-27T21:32:33.733Z,99307.81
2022-07-27T21:35:00.551Z,99312.23
2022-07-27T21:37:33.494Z,99313.24
2022-07-27T21:39:59.919Z,99317.13
2022-07-27T21:42:27.320Z,99320.13
2022-07-27T21:44:55.468Z,99322.27
2022-07-27T21:47:23.189Z,99322.69
2022-07-27T21:49:49.830Z,99329.32
2022-07-27T21:52:16.230Z,99327.56
2022-07-27T21:54:42.750Z,99327.26
2022-07-27T21:57:09.178Z,99328.01
2022-07-27T21:59:36.244Z,99329.87
2022-07-27T22:02:03.607Z,99334.99
2022-07-27T22:04:30.074Z,99339.11
2022-07-27T22:06:56.593Z,99342.30
2022-07-27T22:09:23.112Z,99351.02
2022-07-27T22:11:50.150Z,99354.43
2022-07-27T22:14:17.070Z,99360.43
2022-07-27T22:16:43.882Z,99361.66
2022-07-27T22:19:10.467Z,99360.52
2022-07-27T22:21:36.940Z,99366.23
2022-07-27T22:24:04.835Z,99363.27
2022-07-27T22:26:31.429Z,99362.44
2022-07-27T22:28:58.455Z,99361.87
2022-07-27T22:31:24.929Z,99357.38
2022-07-27T22:33:51.724Z,99356.73
2022-07-27T22:36:18.496Z,99360.55
2022-07-27T22:38:44.912Z,99361.23
2022-07-27T22:41:11.525Z,99361.67
2022-07-27T22:43:40.755Z,99353.71
2022-07-27T22:46:09.391Z,99351.34
2022-07-27T22:48:37.248Z,99353.42
2022-07-27T22:51:04.271Z,99349.67
2022-07-27T22:53:30.670Z,99350.74
2022-07-27T22:55:57.087Z,99352.64
2022-07-27T22:58:23.536Z,99356.27
2022-07-27T23:00:50.111Z,99356.61
2022-07-27T23:03:16.733Z,99361.77
2022-07-27T23:05:43.180Z,99362.86
2022-07-27T23:08:09.678Z,99363.27
2022-07-27T23:10:45.082Z,99366.05
2022-07-27T23:13:16.219Z,99366.23
2022-07-27T23:15:44.676Z,99367.19
2022-07-27T23:18:12.800Z,99366.21
2022-07-27T23:20:40.126Z,99363.38
2022-07-27T23:23:15.741Z,99368.06
2022-07-27T23:25:48.773Z,99367.83
2022-07-27T23:28:16.102Z,99370.15
2022-07-27T23:30:50.818Z,99370.79
2022-07-27T23:33:17.851Z,99376.38
2022-07-27T23:35:44.370Z,99375.19
2022-07-27T23:38:10.809Z,99376.71
2022-07-27T23:40:37.266Z,99380.34
2022-07-27T23:43:03.785Z,99379.66
2022-07-27T23:45:30.433Z,99379.58
2022-07-27T23:47:56.847Z,99382.96
2022-07-27T23:50:23.501Z,99384.46
2022-07-27T23:52:50.043Z,99382.54
2022-07-27T23:55:17.454Z,99384.47
2022-07-27T23:57:44.320Z,99385.15
